Time;durP1;ratioP1;P1;durP2;ratioP2;P2;SDS_P1;SDS_P2;PMS_P1;PMS_P2;Temp;Humidity;BMP_temperature;BMP_pressure;BME280_temperature;BME280_humidity;BME280_pressure;Samples;Min_cycle;Max_cycle;Signal;HPM_P1;HPM_P2
2023/12/10 00:02:06;;;;;;;11.40;11.00;;;6.50;99.90;;;;;;5104156;28;20247;-83
2023/12/10 00:04:36;;;;;;;11.53;11.13;;;6.60;99.90;;;;;;5103984;28;20237;-83
2023/12/10 00:07:03;;;;;;;11.50;11.10;;;6.70;99.90;;;;;;5104162;28;20295;-84
2023/12/10 00:09:31;;;;;;;11.40;11.00;;;6.80;99.90;;;;;;5104654;28;20274;-84
2023/12/10 00:11:58;;;;;;;11.20;10.80;;;6.90;99.90;;;;;;5104448;28;20225;-83
2023/12/10 00:14:26;;;;;;;11.33;10.93;;;7.00;99.90;;;;;;5103852;28;20254;-83
2023/12/10 00:16:55;;;;;;;11.40;11.00;;;7.00;99.90;;;;;;5104112;28;20230;-83
2023/12/10 00:19:22;;;;;;;11.37;10.97;;;7.10;99.90;;;;;;5104024;28;20236;-83
2023/12/10 00:21:52;;;;;;;11.50;11.10;;;7.20;99.90;;;;;;5104377;28;20229;-84
2023/12/10 00:24:21;;;;;;;11.50;11.10;;;7.20;99.90;;;;;;5103989;28;20714;-84
2023/12/10 00:26:49;;;;;;;11.30;10.90;;;7.30;99.90;;;;;;5105059;28;20240;-83
2023/12/10 00:29:17;;;;;;;11.40;11.00;;;7.40;99.90;;;;;;5106426;28;20229;-84
2023/12/10 00:31:44;;;;;;;11.30;10.90;;;7.40;99.90;;;;;;5104512;28;20233;-83
2023/12/10 00:34:13;;;;;;;11.50;11.10;;;7.50;99.90;;;;;;5104477;28;20233;-84
2023/12/10 00:36:40;;;;;;;11.73;11.33;;;7.60;99.90;;;;;;5104466;28;20251;-83
2023/12/10 00:39:09;;;;;;;11.40;11.00;;;7.70;99.90;;;;;;5104515;28;20229;-83
2023/12/10 00:41:36;;;;;;;11.70;11.30;;;7.70;99.90;;;;;;5104382;28;20251;-83
2023/12/10 00:44:04;;;;;;;11.73;11.33;;;7.80;99.90;;;;;;5105327;28;20256;-82
2023/12/10 00:46:32;;;;;;;11.30;10.90;;;8.00;99.90;;;;;;5119685;28;20222;-81
2023/12/10 00:48:59;;;;;;;11.40;11.00;;;8.00;99.90;;;;;;5119167;28;20265;-82
2023/12/10 00:51:28;;;;;;;11.23;10.83;;;8.00;99.90;;;;;;5118996;28;20217;-81
2023/12/10 00:53:55;;;;;;;11.20;10.80;;;8.10;99.90;;;;;;5119050;28;20237;-81
2023/12/10 00:56:22;;;;;;;11.50;11.10;;;8.20;99.90;;;;;;5108261;28;20225;-81
2023/12/10 00:58:50;;;;;;;11.53;11.13;;;8.30;99.90;;;;;;5106919;28;20256;-82
2023/12/10 01:01:18;;;;;;;11.23;10.83;;;8.30;99.90;;;;;;5105858;28;20229;-82
2023/12/10 01:03:45;;;;;;;11.10;10.70;;;8.30;99.90;;;;;;5105780;28;20237;-83
2023/12/10 01:06:13;;;;;;;11.13;10.73;;;8.30;99.90;;;;;;5108436;28;20232;-83
2023/12/10 01:08:43;;;;;;;11.10;10.70;;;8.30;99.90;;;;;;5113818;28;20225;-82
2023/12/10 01:11:11;;;;;;;10.90;10.60;;;8.30;99.90;;;;;;5119545;28;20303;-81
2023/12/10 01:13:38;;;;;;;11.20;10.80;;;8.30;99.90;;;;;;5111947;28;20328;-83
2023/12/10 01:16:08;;;;;;;11.30;10.90;;;8.30;99.90;;;;;;5104013;28;20225;-82
2023/12/10 01:18:37;;;;;;;11.10;10.70;;;8.30;99.90;;;;;;5103878;28;20229;-82
2023/12/10 01:21:05;;;;;;;10.90;10.60;;;8.30;99.90;;;;;;5106260;28;20276;-82
2023/12/10 01:23:32;;;;;;;10.97;10.67;;;8.30;99.90;;;;;;5120056;28;20218;-79
2023/12/10 01:26:01;;;;;;;10.90;10.60;;;8.30;99.90;;;;;;5119877;28;20217;-79
2023/12/10 01:28:28;;;;;;;11.23;10.87;;;8.40;99.90;;;;;;5117079;28;20279;-82
2023/12/10 01:30:55;;;;;;;11.20;10.80;;;8.40;99.90;;;;;;5114309;28;20229;-81
2023/12/10 01:33:23;;;;;;;11.00;10.70;;;8.40;99.90;;;;;;5115962;28;20229;-82
2023/12/10 01:35:50;;;;;;;10.73;10.43;;;8.40;99.90;;;;;;5118256;28;20233;-82
2023/12/10 01:38:18;;;;;;;10.90;10.60;;;8.40;99.90;;;;;;5108289;28;20228;-81
2023/12/10 01:40:45;;;;;;;10.90;10.60;;;8.40;99.90;;;;;;5104461;28;20233;-82
2023/12/10 01:43:17;;;;;;;10.67;10.37;;;8.40;99.90;;;;;;5105814;28;20226;-82
2023/12/10 01:45:48;;;;;;;10.53;10.23;;;8.50;99.90;;;;;;5105639;28;20236;-82
2023/12/10 01:48:16;;;;;;;10.70;10.40;;;8.40;99.90;;;;;;5107880;28;20225;-81
2023/12/10 01:50:45;;;;;;;10.53;10.23;;;8.50;99.90;;;;;;5107928;28;20285;-81
2023/12/10 01:53:12;;;;;;;10.53;10.23;;;8.50;99.90;;;;;;5107992;28;20245;-82
2023/12/10 01:55:40;;;;;;;10.90;10.60;;;8.50;99.90;;;;;;5109704;28;20274;-82
2023/12/10 01:58:09;;;;;;;10.37;10.07;;;8.50;99.90;;;;;;5116664;28;20281;-82
2023/12/10 02:00:38;;;;;;;10.57;10.27;;;8.50;99.90;;;;;;5120986;28;20233;-81
2023/12/10 02:03:06;;;;;;;10.60;10.30;;;8.50;99.90;;;;;;5106985;28;20238;-82
2023/12/10 02:05:34;;;;;;;10.43;10.13;;;8.50;99.90;;;;;;5106630;28;20264;-82
2023/12/10 02:08:02;;;;;;;10.40;10.10;;;8.50;99.90;;;;;;5106027;28;20237;-82
2023/12/10 02:10:29;;;;;;;10.40;10.10;;;8.50;99.90;;;;;;5106303;28;20229;-81
2023/12/10 02:12:58;;;;;;;10.43;10.13;;;8.50;99.90;;;;;;5106875;28;20320;-82
2023/12/10 02:15:28;;;;;;;10.23;9.93;;;8.50;99.90;;;;;;5106801;28;20240;-81
2023/12/10 02:17:57;;;;;;;10.30;10.00;;;8.60;99.90;;;;;;5106916;28;20402;-82
2023/12/10 02:20:24;;;;;;;10.27;9.97;;;8.60;99.90;;;;;;5107275;28;20225;-81
2023/12/10 02:23:04;;;;;;;10.40;10.10;;;8.60;99.90;;;;;;5107687;28;20225;-81
2023/12/10 02:25:34;;;;;;;10.40;10.10;;;8.60;99.90;;;;;;5122614;28;20281;-80
2023/12/10 02:28:03;;;;;;;10.43;10.13;;;8.60;99.90;;;;;;5122302;28;20224;-80
2023/12/10 02:30:32;;;;;;;10.70;10.40;;;8.60;99.90;;;;;;5122456;28;20290;-80
2023/12/10 02:32:59;;;;;;;10.60;10.30;;;8.60;99.90;;;;;;5113865;28;20221;-82
2023/12/10 02:35:27;;;;;;;10.60;10.30;;;8.60;99.90;;;;;;5112008;28;20226;-82
2023/12/10 02:37:55;;;;;;;10.53;10.23;;;8.60;99.90;;;;;;5109351;28;20234;-81
2023/12/10 02:40:22;;;;;;;10.60;10.30;;;8.50;99.90;;;;;;5115218;28;20229;-82
2023/12/10 02:42:51;;;;;;;10.70;10.40;;;8.50;99.90;;;;;;5110871;28;20260;-81
2023/12/10 02:45:18;;;;;;;10.70;10.40;;;8.50;99.90;;;;;;5108484;28;20229;-82
2023/12/10 02:47:46;;;;;;;10.63;10.33;;;8.50;99.90;;;;;;5108105;28;20336;-81
2023/12/10 02:50:13;;;;;;;10.70;10.40;;;8.50;99.90;;;;;;5107686;28;20233;-82
2023/12/10 02:52:41;;;;;;;10.80;10.50;;;8.50;99.90;;;;;;5107566;28;20233;-82
2023/12/10 02:55:09;;;;;;;10.73;10.43;;;8.40;99.90;;;;;;5106748;28;20259;-82
2023/12/10 02:57:36;;;;;;;10.83;10.53;;;8.40;99.90;;;;;;5106438;28;20221;-82
2023/12/10 03:00:07;;;;;;;10.60;10.30;;;8.40;99.90;;;;;;5106162;28;20229;-82
2023/12/10 03:02:35;;;;;;;10.70;10.40;;;8.40;99.90;;;;;;5106580;28;20214;-81
2023/12/10 03:05:02;;;;;;;10.57;10.27;;;8.40;99.90;;;;;;5106698;28;20238;-81
2023/12/10 03:07:30;;;;;;;10.47;10.17;;;8.40;99.90;;;;;;5106765;28;20234;-82
2023/12/10 03:09:57;;;;;;;10.57;10.27;;;8.40;99.90;;;;;;5107711;28;20248;-82
2023/12/10 03:12:25;;;;;;;10.60;10.30;;;8.40;99.90;;;;;;5107447;28;20262;-81
2023/12/10 03:14:52;;;;;;;10.80;10.50;;;8.30;99.90;;;;;;5107042;28;20232;-82
2023/12/10 03:17:21;;;;;;;10.93;10.63;;;8.30;99.90;;;;;;5106921;28;20325;-82
2023/12/10 03:19:48;;;;;;;10.90;10.60;;;8.30;99.90;;;;;;5107066;28;20237;-82
2023/12/10 03:22:16;;;;;;;10.80;10.50;;;8.30;99.90;;;;;;5107002;28;20226;-82
2023/12/10 03:24:43;;;;;;;10.70;10.40;;;8.30;99.90;;;;;;5107162;28;20244;-81
2023/12/10 03:27:11;;;;;;;10.60;10.30;;;8.30;99.90;;;;;;5106521;28;20234;-82
2023/12/10 03:29:38;;;;;;;10.70;10.40;;;8.40;99.90;;;;;;5106956;28;20230;-82
2023/12/10 03:32:07;;;;;;;10.70;10.40;;;8.30;99.90;;;;;;5107244;28;20241;-82
2023/12/10 03:34:35;;;;;;;10.67;10.37;;;8.40;99.90;;;;;;5106776;28;20300;-81
2023/12/10 03:37:03;;;;;;;10.70;10.40;;;8.40;99.90;;;;;;5106318;28;20213;-82
2023/12/10 03:39:31;;;;;;;10.80;10.50;;;8.30;99.90;;;;;;5105942;28;20229;-82
2023/12/10 03:41:58;;;;;;;10.40;10.10;;;8.30;99.90;;;;;;5106100;28;20245;-82
2023/12/10 03:44:25;;;;;;;10.63;10.33;;;8.30;99.90;;;;;;5105318;28;20729;-81
2023/12/10 03:46:53;;;;;;;10.60;10.30;;;8.30;99.90;;;;;;5104787;28;20221;-82
2023/12/10 03:49:20;;;;;;;10.50;10.20;;;8.30;99.90;;;;;;5105597;28;20221;-81
2023/12/10 03:51:49;;;;;;;10.33;10.03;;;8.40;99.90;;;;;;5105284;28;20237;-82
2023/12/10 03:54:17;;;;;;;10.70;10.40;;;8.40;99.90;;;;;;5105582;28;20238;-82
2023/12/10 03:56:44;;;;;;;10.80;10.50;;;8.40;99.90;;;;;;5110312;28;20221;-82
2023/12/10 03:59:11;;;;;;;10.83;10.53;;;8.30;99.90;;;;;;5108533;28;20233;-82
2023/12/10 04:01:41;;;;;;;10.77;10.47;;;8.30;99.90;;;;;;5115290;28;20229;-82
2023/12/10 04:04:09;;;;;;;10.97;10.67;;;8.30;99.90;;;;;;5106865;28;20237;-82
2023/12/10 04:06:39;;;;;;;10.97;10.67;;;8.30;99.90;;;;;;5113814;28;20236;-80
2023/12/10 04:09:09;;;;;;;10.90;10.60;;;8.30;99.90;;;;;;5112530;28;20229;-82
2023/12/10 04:11:37;;;;;;;11.00;10.70;;;8.30;99.90;;;;;;5119140;28;20224;-81
2023/12/10 04:14:04;;;;;;;10.83;10.53;;;8.30;99.90;;;;;;5120426;28;20242;-82
2023/12/10 04:16:32;;;;;;;11.30;10.90;;;8.20;99.90;;;;;;5120703;28;20205;-81
2023/12/10 04:19:00;;;;;;;10.80;10.50;;;8.20;99.90;;;;;;5118269;28;20221;-79
2023/12/10 04:21:27;;;;;;;10.97;10.67;;;8.20;99.90;;;;;;5121797;28;20276;-80
2023/12/10 04:23:54;;;;;;;10.77;10.47;;;8.20;99.90;;;;;;5121308;28;20236;-80
2023/12/10 04:26:23;;;;;;;11.10;10.70;;;8.20;99.90;;;;;;5121839;28;20229;-79
2023/12/10 04:28:51;;;;;;;10.90;10.60;;;8.20;99.90;;;;;;5121999;28;20216;-79
2023/12/10 04:31:18;;;;;;;10.73;10.43;;;8.20;99.90;;;;;;5122071;28;20237;-79
2023/12/10 04:33:46;;;;;;;10.63;10.33;;;8.20;99.90;;;;;;5121403;28;20229;-78
2023/12/10 04:36:13;;;;;;;10.60;10.30;;;8.20;99.90;;;;;;5121556;28;20356;-79
2023/12/10 04:38:41;;;;;;;10.70;10.40;;;8.30;99.90;;;;;;5121514;28;20206;-79
2023/12/10 04:41:09;;;;;;;10.43;10.13;;;8.30;99.90;;;;;;5121810;28;20220;-79
2023/12/10 04:43:38;;;;;;;10.53;10.23;;;8.30;99.90;;;;;;5121247;28;20225;-80
2023/12/10 04:46:06;;;;;;;10.40;10.10;;;8.30;99.90;;;;;;5121476;28;20337;-79
2023/12/10 04:48:33;;;;;;;10.60;10.30;;;8.30;99.90;;;;;;5121126;28;20229;-76
2023/12/10 04:51:01;;;;;;;10.50;10.20;;;8.30;99.90;;;;;;5121511;28;20212;-77
2023/12/10 04:53:28;;;;;;;10.50;10.20;;;8.30;99.90;;;;;;5120856;28;20221;-77
2023/12/10 04:55:56;;;;;;;10.47;10.17;;;8.30;99.90;;;;;;5121293;28;20220;-77
2023/12/10 04:58:23;;;;;;;10.57;10.27;;;8.30;99.90;;;;;;5121633;28;20586;-78
2023/12/10 05:00:52;;;;;;;10.30;10.00;;;8.30;99.90;;;;;;5121528;28;20215;-78
2023/12/10 05:05:49;;;;;;;10.40;10.10;;;8.20;99.90;;;;;;5084560;28;20282;-88
2023/12/10 05:08:29;;;;;;;10.63;10.33;;;8.20;99.90;;;;;;5085869;28;20252;-89
2023/12/10 05:10:58;;;;;;;10.80;10.50;;;8.10;99.90;;;;;;5085907;28;20232;-89
2023/12/10 05:13:26;;;;;;;10.43;10.13;;;8.10;99.90;;;;;;5086375;28;20261;-88
2023/12/10 05:18:44;;;;;;;10.60;10.30;;;8.00;99.90;;;;;;5087301;28;20284;-88
2023/12/10 05:21:12;;;;;;;10.60;10.30;;;7.90;99.90;;;;;;5086812;28;20289;-88
2023/12/10 05:23:42;;;;;;;10.43;10.13;;;7.80;99.90;;;;;;5095080;28;20233;-86
2023/12/10 05:32:05;;;;;;;10.40;10.10;;;7.70;99.90;;;;;;5086503;28;20260;-89
2023/12/10 05:34:35;;;;;;;10.43;10.13;;;7.60;99.90;;;;;;5097750;28;20234;-88
2023/12/10 05:37:03;;;;;;;10.17;9.87;;;7.60;99.90;;;;;;5099598;28;20218;-87
2023/12/10 05:39:31;;;;;;;10.60;10.30;;;7.50;99.90;;;;;;5099854;28;20209;-86
2023/12/10 05:42:11;;;;;;;10.70;10.40;;;7.50;99.90;;;;;;5099297;28;20216;-87
2023/12/10 05:44:39;;;;;;;10.53;10.23;;;7.50;99.90;;;;;;5099548;28;20333;-87
2023/12/10 05:49:56;;;;;;;10.37;10.07;;;7.50;99.90;;;;;;5091115;28;20261;-88
2023/12/10 05:52:25;;;;;;;10.40;10.10;;;7.40;99.90;;;;;;5086062;28;20305;-89
2023/12/10 05:54:55;;;;;;;10.47;10.17;;;7.40;99.90;;;;;;5085148;28;20250;-89
2023/12/10 05:57:24;;;;;;;10.40;10.10;;;7.40;99.90;;;;;;5085230;28;20206;-88
2023/12/10 05:59:53;;;;;;;10.80;10.50;;;7.40;99.90;;;;;;5084997;28;20226;-89
2023/12/10 06:02:26;;;;;;;10.77;10.47;;;7.40;99.90;;;;;;5085081;28;20257;-88
2023/12/10 06:04:53;;;;;;;10.50;10.20;;;7.40;99.90;;;;;;5084979;28;20238;-89
2023/12/10 06:07:25;;;;;;;10.60;10.30;;;7.40;99.90;;;;;;5085208;28;20265;-88
2023/12/10 06:09:52;;;;;;;10.47;10.17;;;7.40;99.90;;;;;;5085708;28;20218;-88
2023/12/10 06:12:21;;;;;;;10.50;10.20;;;7.30;99.90;;;;;;5086105;28;20249;-88
2023/12/10 06:14:50;;;;;;;10.60;10.30;;;7.30;99.90;;;;;;5084761;28;20245;-88
2023/12/10 06:17:29;;;;;;;10.40;10.10;;;7.30;99.90;;;;;;5084353;28;20281;-89
2023/12/10 06:20:00;;;;;;;10.70;10.40;;;7.30;99.90;;;;;;5085079;28;20232;-89
2023/12/10 06:22:28;;;;;;;10.60;10.30;;;7.20;99.90;;;;;;5084998;28;20230;-88
2023/12/10 06:24:57;;;;;;;10.60;10.30;;;7.20;99.90;;;;;;5084655;28;20282;-88
2023/12/10 06:27:26;;;;;;;10.50;10.20;;;7.20;99.90;;;;;;5085063;28;20230;-89
2023/12/10 06:29:55;;;;;;;10.40;10.10;;;7.20;99.90;;;;;;5084671;28;20233;-89
2023/12/10 06:32:24;;;;;;;10.50;10.20;;;7.20;99.90;;;;;;5086412;28;20241;-90
2023/12/10 06:37:37;;;;;;;10.60;10.30;;;7.10;99.90;;;;;;5087548;28;20265;-90
2023/12/10 06:42:59;;;;;;;10.70;10.40;;;7.10;99.90;;;;;;5087910;28;20226;-89
2023/12/10 06:45:28;;;;;;;10.60;10.30;;;7.10;99.90;;;;;;5087276;28;20230;-89
2023/12/10 06:47:58;;;;;;;10.33;10.03;;;7.10;99.90;;;;;;5087481;28;20230;-89
2023/12/10 06:50:28;;;;;;;10.50;10.20;;;7.10;99.90;;;;;;5088333;28;20287;-88
2023/12/10 06:52:59;;;;;;;10.53;10.23;;;7.10;99.90;;;;;;5097304;28;20234;-88
2023/12/10 06:55:26;;;;;;;10.27;9.97;;;7.10;99.90;;;;;;5101116;28;20218;-89
2023/12/10 06:58:06;;;;;;;10.37;10.07;;;7.10;99.90;;;;;;5088368;28;20230;-88
2023/12/10 07:00:34;;;;;;;10.10;9.80;;;7.00;99.90;;;;;;5068195;28;20230;-89
2023/12/10 07:05:43;;;;;;;10.07;9.77;;;7.00;99.90;;;;;;5066185;28;20226;-89
2023/12/10 07:08:14;;;;;;;10.40;10.10;;;7.00;99.90;;;;;;5066633;28;20214;-89
2023/12/10 07:10:42;;;;;;;10.10;9.80;;;7.00;99.90;;;;;;5066827;28;20293;-88
2023/12/10 07:13:10;;;;;;;10.17;9.87;;;7.10;99.90;;;;;;5072579;28;20249;-89
2023/12/10 07:15:50;;;;;;;10.37;10.07;;;7.10;99.90;;;;;;5067983;28;20277;-89
2023/12/10 07:18:20;;;;;;;10.03;9.73;;;7.10;99.90;;;;;;5068245;28;20229;-89
2023/12/10 07:20:47;;;;;;;10.03;9.73;;;7.10;99.90;;;;;;5068741;28;20286;-88
2023/12/10 07:26:04;;;;;;;10.20;9.90;;;7.20;99.90;;;;;;5068381;28;20222;-89
2023/12/10 07:28:33;;;;;;;9.97;9.67;;;7.20;99.90;;;;;;5067152;28;20724;-89
2023/12/10 07:31:03;;;;;;;10.45;10.15;;;7.20;99.90;;;;;;5071886;28;20402;-87
2023/12/10 07:33:42;;;;;;;10.40;10.10;;;7.20;99.90;;;;;;5076030;28;20281;-89
2023/12/10 07:36:12;;;;;;;10.10;9.80;;;7.30;99.90;;;;;;5067687;28;20240;-89
2023/12/10 07:38:43;;;;;;;10.10;9.80;;;7.40;99.90;;;;;;5066333;28;20239;-88
2023/12/10 07:41:11;;;;;;;10.10;9.80;;;7.40;99.90;;;;;;5067808;28;20227;-88
2023/12/10 07:43:39;;;;;;;9.90;9.60;;;7.50;99.90;;;;;;5067295;28;20270;-88
2023/12/10 07:46:08;;;;;;;10.20;9.90;;;7.50;99.90;;;;;;5066547;28;20313;-88
2023/12/10 07:48:48;;;;;;;10.27;9.97;;;7.50;99.90;;;;;;5065679;28;20281;-89
2023/12/10 07:51:17;;;;;;;10.40;10.10;;;7.60;99.90;;;;;;5066730;28;20234;-89
2023/12/10 07:53:48;;;;;;;10.10;9.80;;;7.60;99.90;;;;;;5067213;28;20243;-88
2023/12/10 07:56:16;;;;;;;9.97;9.67;;;7.70;99.90;;;;;;5066683;28;20319;-87
2023/12/10 07:58:45;;;;;;;10.10;9.80;;;7.80;99.90;;;;;;5066808;28;20222;-87
2023/12/10 08:01:14;;;;;;;10.03;9.73;;;7.80;99.90;;;;;;5067642;28;20230;-88
2023/12/10 08:03:53;;;;;;;10.10;9.80;;;7.90;99.90;;;;;;5067917;28;20242;-88
2023/12/10 08:06:22;;;;;;;10.13;9.83;;;8.00;99.90;;;;;;5069141;28;20219;-89
2023/12/10 08:11:38;;;;;;;10.40;10.10;;;8.10;99.90;;;;;;5066114;28;20226;-88
2023/12/10 08:14:18;;;;;;;10.13;9.83;;;8.20;99.90;;;;;;5066045;28;20273;-89
2023/12/10 08:16:48;;;;;;;9.97;9.67;;;8.20;99.90;;;;;;5067449;28;20219;-88
2023/12/10 08:19:16;;;;;;;10.20;9.90;;;8.20;99.90;;;;;;5067682;28;20225;-86
2023/12/10 08:27:18;;;;;;;9.83;9.53;;;8.30;99.90;;;;;;5066389;28;20226;-85
2023/12/10 08:29:58;;;;;;;10.30;10.00;;;8.30;99.90;;;;;;5067052;28;20234;-86
2023/12/10 08:32:27;;;;;;;10.23;9.93;;;8.30;99.90;;;;;;5047824;28;20233;-88
2023/12/10 08:34:55;;;;;;;9.93;9.63;;;8.20;99.90;;;;;;5065996;28;20261;-86
2023/12/10 08:37:35;;;;;;;10.13;9.83;;;8.20;99.90;;;;;;5067066;28;20239;-87
2023/12/10 08:40:12;;;;;;;10.30;10.00;;;8.20;99.90;;;;;;5068712;28;20289;-86
2023/12/10 08:42:51;;;;;;;10.17;9.87;;;8.20;99.90;;;;;;5067125;28;20226;-87
2023/12/10 08:45:21;;;;;;;9.90;9.60;;;8.30;99.90;;;;;;5066233;28;20314;-88
2023/12/10 08:47:50;;;;;;;10.30;10.00;;;8.30;99.90;;;;;;5065962;28;20231;-88
2023/12/10 08:50:18;;;;;;;10.50;10.20;;;8.30;99.90;;;;;;5066924;28;20219;-87
2023/12/10 08:52:49;;;;;;;10.47;10.17;;;8.30;99.90;;;;;;5065990;28;20392;-89
2023/12/10 08:55:22;;;;;;;10.50;10.20;;;8.40;99.90;;;;;;5047019;28;20238;-87
2023/12/10 08:57:49;;;;;;;10.60;10.30;;;8.40;99.90;;;;;;5065814;28;20219;-86
2023/12/10 09:00:18;;;;;;;10.50;10.20;;;8.40;99.90;;;;;;5065909;28;20231;-87
2023/12/10 09:02:47;;;;;;;10.40;10.10;;;8.50;99.90;;;;;;5068014;28;20322;-86
2023/12/10 09:16:10;;;;;;;10.40;10.10;;;8.60;99.90;;;;;;4935571;28;20237;-86
2023/12/10 09:18:38;;;;;;;10.10;9.80;;;8.70;99.90;;;;;;4985903;28;20225;-86
2023/12/10 09:21:07;;;;;;;10.20;9.90;;;8.70;99.90;;;;;;5059681;28;20241;-86
2023/12/10 09:23:35;;;;;;;10.00;9.70;;;8.70;99.90;;;;;;5068277;28;20226;-85
2023/12/10 09:26:14;;;;;;;10.07;9.77;;;8.70;99.90;;;;;;5067452;28;20230;-87
2023/12/10 09:28:43;;;;;;;10.03;9.73;;;8.80;99.90;;;;;;5068280;28;20249;-86
2023/12/10 09:31:16;;;;;;;10.27;9.97;;;8.90;99.90;;;;;;5068272;28;20234;-84
2023/12/10 09:33:43;;;;;;;10.33;10.03;;;8.90;99.90;;;;;;5068150;28;20321;-84
2023/12/10 09:36:14;;;;;;;10.07;9.77;;;9.00;99.90;;;;;;5068214;28;20230;-85
2023/12/10 09:38:44;;;;;;;10.37;10.07;;;9.00;99.90;;;;;;5074065;28;20298;-85
2023/12/10 09:41:12;;;;;;;10.60;10.30;;;9.00;99.90;;;;;;5090863;28;20231;-85
2023/12/10 09:43:40;;;;;;;10.33;10.03;;;9.10;99.90;;;;;;5088145;28;20218;-85
2023/12/10 09:46:09;;;;;;;10.43;10.13;;;9.20;99.90;;;;;;5094876;28;20233;-84
2023/12/10 09:51:27;;;;;;;10.60;10.30;;;9.60;99.90;;;;;;5107321;28;20225;-86
2023/12/10 09:53:55;;;;;;;10.17;9.87;;;9.70;99.90;;;;;;5106794;28;20289;-86
2023/12/10 09:56:25;;;;;;;10.40;10.10;;;9.90;99.90;;;;;;5088790;28;20230;-85
2023/12/10 09:58:54;;;;;;;10.67;10.37;;;10.00;99.90;;;;;;5087232;28;20249;-85
2023/12/10 10:01:33;;;;;;;10.40;10.10;;;10.20;99.90;;;;;;5086509;28;20222;-85
2023/12/10 10:04:04;;;;;;;10.50;10.20;;;10.30;99.90;;;;;;5087291;28;20282;-86
2023/12/10 10:06:32;;;;;;;10.37;10.07;;;10.40;99.90;;;;;;5089510;28;20226;-85
2023/12/10 10:09:01;;;;;;;10.33;10.03;;;10.60;99.90;;;;;;5091397;28;20230;-85
2023/12/10 10:11:41;;;;;;;10.30;10.00;;;10.70;99.90;;;;;;5092483;28;20238;-85
2023/12/10 10:14:10;;;;;;;10.40;10.10;;;10.80;99.90;;;;;;5090450;28;20232;-84
2023/12/10 10:16:38;;;;;;;10.83;10.53;;;10.90;99.90;;;;;;5090542;28;20230;-86
2023/12/10 10:22:03;;;;;;;10.83;10.53;;;10.80;99.90;;;;;;5091651;28;20232;-85
2023/12/10 10:24:43;;;;;;;10.53;10.23;;;10.80;99.90;;;;;;5092436;28;20226;-85
2023/12/10 10:27:11;;;;;;;10.43;10.13;;;10.80;99.90;;;;;;5073768;28;20234;-84
2023/12/10 10:29:53;;;;;;;10.40;10.10;;;10.60;99.90;;;;;;5091270;28;20268;-83
2023/12/10 10:32:30;;;;;;;10.40;10.10;;;10.50;99.90;;;;;;5091611;28;20232;-85
2023/12/10 10:35:06;;;;;;;10.60;10.30;;;10.60;99.90;;;;;;5090502;28;20226;-85
2023/12/10 10:37:35;;;;;;;10.30;10.00;;;10.70;99.90;;;;;;5092407;28;20218;-85
2023/12/10 10:40:04;;;;;;;10.57;10.27;;;10.70;99.90;;;;;;5093186;28;20232;-86
2023/12/10 10:42:44;;;;;;;10.23;9.93;;;10.50;99.90;;;;;;5093667;28;20246;-85
2023/12/10 10:45:13;;;;;;;10.10;9.80;;;10.40;99.90;;;;;;5092632;28;20208;-84
2023/12/10 10:47:42;;;;;;;10.50;10.20;;;10.40;99.90;;;;;;5092250;28;21074;-86
2023/12/10 10:50:20;;;;;;;10.30;10.00;;;10.50;99.90;;;;;;5072265;28;20236;-85
2023/12/10 10:52:49;;;;;;;10.47;10.17;;;10.70;99.90;;;;;;5091654;28;20226;-87
2023/12/10 10:55:20;;;;;;;10.03;9.73;;;10.70;99.90;;;;;;5090348;28;20226;-85
2023/12/10 10:58:00;;;;;;;10.20;9.90;;;10.70;99.90;;;;;;5090346;28;20230;-86
2023/12/10 11:00:38;;;;;;;10.13;9.83;;;10.50;99.90;;;;;;5094195;28;20272;-86
2023/12/10 11:03:09;;;;;;;10.40;10.10;;;10.30;99.90;;;;;;5092790;28;20337;-86
2023/12/10 11:05:40;;;;;;;10.50;10.20;;;10.30;99.90;;;;;;5143796;22;20247;-80
2023/12/10 11:08:08;;;;;;;10.20;9.90;;;10.40;99.90;;;;;;5119014;28;20229;-81
2023/12/10 11:10:37;;;;;;;10.20;9.90;;;10.50;99.90;;;;;;5113538;28;20272;-81
2023/12/10 11:13:04;;;;;;;10.40;10.10;;;10.60;99.90;;;;;;5107682;28;20225;-81
2023/12/10 11:15:38;;;;;;;10.40;10.10;;;10.80;99.90;;;;;;5107806;28;20217;-82
2023/12/10 11:18:10;;;;;;;10.10;9.80;;;10.90;99.90;;;;;;5105816;28;20229;-81
2023/12/10 11:20:41;;;;;;;10.17;9.87;;;11.00;99.90;;;;;;5105481;28;20230;-79
2023/12/10 11:23:11;;;;;;;10.30;10.00;;;11.00;99.90;;;;;;5106564;28;20226;-81
2023/12/10 11:25:40;;;;;;;10.37;10.07;;;11.10;99.90;;;;;;5105996;28;20336;-79
2023/12/10 11:28:15;;;;;;;10.40;10.10;;;11.10;99.90;;;;;;5109682;28;20253;-81
2023/12/10 11:30:44;;;;;;;10.47;10.17;;;11.10;99.90;;;;;;5107356;28;20264;-80
2023/12/10 11:33:13;;;;;;;10.20;9.90;;;11.20;99.90;;;;;;5105992;28;20272;-81
2023/12/10 11:35:47;;;;;;;10.47;10.17;;;11.30;99.90;;;;;;5107033;28;20225;-82
2023/12/10 11:38:15;;;;;;;9.97;9.67;;;11.40;99.90;;;;;;5105909;28;20229;-82
2023/12/10 11:40:42;;;;;;;10.17;9.87;;;11.60;99.90;;;;;;5106132;27;20947;-81
2023/12/10 11:43:13;;;;;;;10.30;10.00;;;11.70;99.90;;;;;;5106690;28;20234;-81
2023/12/10 11:45:41;;;;;;;10.20;9.90;;;11.80;99.90;;;;;;5106677;28;20234;-81
2023/12/10 11:48:08;;;;;;;10.40;10.10;;;11.90;99.90;;;;;;5105675;28;20232;-81
2023/12/10 11:50:41;;;;;;;9.87;9.57;;;12.10;99.90;;;;;;5106039;28;20234;-80
2023/12/10 11:53:10;;;;;;;10.00;9.70;;;12.20;99.90;;;;;;5107278;27;20229;-80
2023/12/10 11:55:37;;;;;;;10.20;9.90;;;12.30;99.90;;;;;;5106286;28;20234;-80
2023/12/10 11:58:05;;;;;;;10.27;9.97;;;12.30;99.90;;;;;;5104830;28;20233;-81
2023/12/10 12:00:33;;;;;;;10.20;9.90;;;12.20;99.90;;;;;;5105314;28;20237;-79
2023/12/10 12:03:05;;;;;;;10.40;10.10;;;12.30;99.90;;;;;;5120853;28;20250;-80
2023/12/10 12:05:33;;;;;;;10.20;9.90;;;12.20;99.90;;;;;;5124055;27;20224;-80
2023/12/10 12:08:02;;;;;;;9.90;9.60;;;12.00;99.90;;;;;;5127111;28;20225;-81
2023/12/10 12:10:38;;;;;;;10.03;9.73;;;11.90;99.90;;;;;;5125524;28;20328;-80
2023/12/10 12:13:06;;;;;;;10.40;10.10;;;11.90;99.90;;;;;;5125065;28;20235;-82
2023/12/10 12:15:34;;;;;;;10.20;9.90;;;11.90;99.90;;;;;;5124438;27;20233;-79
2023/12/10 12:18:04;;;;;;;10.07;9.77;;;11.90;99.90;;;;;;5124568;28;20224;-80
2023/12/10 12:20:32;;;;;;;10.20;9.90;;;11.80;99.90;;;;;;5124431;28;20228;-79
2023/12/10 12:22:59;;;;;;;10.30;10.00;;;11.90;99.90;;;;;;5123616;28;20709;-79
2023/12/10 12:25:27;;;;;;;10.27;9.97;;;11.90;99.90;;;;;;5124793;27;20225;-81
2023/12/10 12:27:56;;;;;;;10.10;9.80;;;11.80;99.90;;;;;;5120349;28;20244;-76
2023/12/10 12:30:38;;;;;;;10.20;9.90;;;11.70;99.90;;;;;;5119548;27;20264;-81
2023/12/10 12:33:06;;;;;;;9.93;9.63;;;11.50;99.90;;;;;;5137310;28;20220;-78
2023/12/10 12:35:33;;;;;;;10.20;9.90;;;11.20;99.90;;;;;;5138815;27;20221;-80
2023/12/10 12:38:12;;;;;;;10.10;9.80;;;10.90;99.90;;;;;;5138955;28;20212;-82
2023/12/10 12:40:46;;;;;;;10.27;9.97;;;10.80;99.90;;;;;;5135384;28;20229;-82
2023/12/10 12:43:53;;;;;;;10.13;9.83;;;10.80;99.90;;;;;;5130636;28;21036;-81
2023/12/10 12:46:51;;;;;;;10.00;9.70;;;11.00;99.90;;;;;;5126907;28;20228;-83
2023/12/10 12:49:22;;;;;;;10.13;9.83;;;11.30;99.90;;;;;;5128861;28;20236;-82
2023/12/10 12:52:05;;;;;;;10.23;9.93;;;11.50;99.90;;;;;;5129241;28;20229;-81
2023/12/10 12:55:15;;;;;;;9.93;9.63;;;11.50;99.90;;;;;;5129037;27;20235;-82
2023/12/10 12:58:52;;;;;;;10.20;9.90;;;11.30;99.90;;;;;;5129449;28;20294;-83
2023/12/10 13:01:24;;;;;;;9.97;9.67;;;11.30;99.90;;;;;;5128498;27;20239;-81
2023/12/10 13:04:03;;;;;;;10.10;9.80;;;11.30;99.90;;;;;;5127150;27;20256;-82
2023/12/10 13:10:56;;;;;;;10.30;10.00;;;11.30;99.90;;;;;;5115030;28;20228;-83
2023/12/10 13:13:59;;;;;;;9.70;9.40;;;11.30;99.90;;;;;;5131813;28;20238;-81
2023/12/10 13:17:57;;;;;;;9.90;9.60;;;11.30;99.90;;;;;;5003411;28;20298;-80
2023/12/10 13:28:48;;;;;;;9.90;9.60;;;11.50;99.90;;;;;;4922549;29;20401;-82
2023/12/10 13:38:31;;;;;;;9.90;9.60;;;11.10;99.90;;;;;;4905933;28;20232;-80
2023/12/10 13:45:35;;;;;;;9.27;8.97;;;11.20;99.90;;;;;;4943082;28;20230;-81
2023/12/10 13:59:17;;;;;;;9.53;9.23;;;10.20;99.90;;;;;;4898279;29;20267;-81
2023/12/10 14:09:41;;;;;;;9.60;9.30;;;9.70;99.90;;;;;;5095387;28;20236;-82
2023/12/10 14:19:19;;;;;;;9.40;9.10;;;9.40;99.90;;;;;;5012705;28;20235;-83
2023/12/10 14:21:57;;;;;;;9.57;9.27;;;9.30;99.90;;;;;;5028088;28;20246;-84
2023/12/10 14:24:26;;;;;;;9.80;9.50;;;9.20;99.90;;;;;;5128203;27;20244;-82
2023/12/10 14:26:54;;;;;;;9.70;9.40;;;9.10;99.90;;;;;;5129669;28;20229;-80
2023/12/10 14:29:21;;;;;;;9.90;9.60;;;9.10;99.90;;;;;;5132671;28;20224;-80
2023/12/10 14:31:49;;;;;;;9.57;9.27;;;9.00;99.90;;;;;;5133428;28;20239;-81
2023/12/10 14:34:24;;;;;;;9.80;9.50;;;9.00;99.90;;;;;;5132401;28;20239;-82
2023/12/10 14:37:09;;;;;;;9.60;9.30;;;9.00;99.90;;;;;;5130833;28;20335;-81